createdAt,value
2022-07-25T00:03:39.157Z,7.50
2022-07-25T00:08:38.842Z,6.63
2022-07-25T00:13:37.630Z,6.68
2022-07-25T00:18:37.840Z,6.40
2022-07-25T00:23:36.705Z,5.60
2022-07-25T00:28:35.778Z,5.35
2022-07-25T00:33:40.568Z,5.22
2022-07-25T00:38:41.987Z,5.55
2022-07-25T00:43:45.442Z,5.53
2022-07-25T00:48:44.732Z,5.38
2022-07-25T00:53:52.442Z,5.97
2022-07-25T00:58:52.078Z,5.80
2022-07-25T01:03:51.884Z,5.13
2022-07-25T01:08:52.747Z,6.03
2022-07-25T01:13:54.839Z,5.47
2022-07-25T01:18:54.272Z,5.47
2022-07-25T01:23:57.516Z,8.80
2022-07-25T01:28:57.189Z,8.45
2022-07-25T01:33:56.423Z,8.05
2022-07-25T01:38:56.934Z,6.85
2022-07-25T01:43:56.039Z,6.13
2022-07-25T01:48:55.396Z,6.35
2022-07-25T01:53:54.522Z,7.00
2022-07-25T01:58:54.808Z,6.57
2022-07-25T02:03:54.699Z,6.20
2022-07-25T02:08:55.764Z,6.57
2022-07-25T02:13:56.318Z,7.60
2022-07-25T02:18:57.305Z,6.50
2022-07-25T02:23:56.589Z,6.00
2022-07-25T02:28:57.725Z,6.80
2022-07-25T02:33:57.334Z,7.03
2022-07-25T02:38:57.606Z,6.57
2022-07-25T02:44:00.610Z,7.35
2022-07-25T02:49:02.801Z,6.70
2022-07-25T02:54:03.198Z,7.15
2022-07-25T02:59:07.840Z,6.78
2022-07-25T03:04:12.714Z,6.63
2022-07-25T03:09:15.421Z,6.53
2022-07-25T03:14:17.739Z,6.32
2022-07-25T03:19:17.809Z,8.05
2022-07-25T03:24:21.553Z,6.43
2022-07-25T03:29:27.679Z,6.63
2022-07-25T03:34:29.844Z,7.07
2022-07-25T03:39:30.882Z,6.50
2022-07-25T03:44:40.620Z,6.97
2022-07-25T03:49:46.929Z,6.82
2022-07-25T03:55:00.635Z,6.93
2022-07-25T04:00:12.832Z,7.78
2022-07-25T04:05:14.759Z,6.47
2022-07-25T04:10:17.103Z,7.40
2022-07-25T04:15:18.372Z,6.70
2022-07-25T04:25:19.703Z,9.57
2022-07-25T04:30:24.726Z,10.15
2022-07-25T04:35:24.235Z,10.23
2022-07-25T04:40:22.988Z,8.35
2022-07-25T04:45:23.698Z,9.23
2022-07-25T04:50:24.968Z,8.63
2022-07-25T04:55:24.187Z,8.48
2022-07-25T05:00:25.018Z,8.15
2022-07-25T05:05:23.842Z,8.80
2022-07-25T05:10:22.566Z,8.88
2022-07-25T05:15:21.513Z,9.43
2022-07-25T05:20:21.783Z,7.70
2022-07-25T05:25:20.989Z,8.95
2022-07-25T05:30:19.765Z,8.07
2022-07-25T05:35:18.560Z,9.20
2022-07-25T05:40:19.538Z,9.10
2022-07-25T05:45:18.281Z,8.70
2022-07-25T05:50:17.002Z,8.75
2022-07-25T05:55:16.080Z,9.98
2022-07-25T06:00:17.043Z,8.48
2022-07-25T06:05:15.846Z,9.35
2022-07-25T06:10:16.651Z,10.10
2022-07-25T06:15:19.763Z,9.07
2022-07-25T06:20:22.105Z,8.80
2022-07-25T06:25:20.964Z,8.45
2022-07-25T06:30:21.164Z,9.23
2022-07-25T06:35:20.324Z,8.17
2022-07-25T06:40:19.128Z,8.00
2022-07-25T06:45:17.961Z,8.55
2022-07-25T06:50:21.427Z,9.13
2022-07-25T06:55:20.441Z,10.05
2022-07-25T07:00:19.630Z,9.82
2022-07-25T07:05:20.613Z,8.27
2022-07-25T07:10:23.994Z,8.43
2022-07-25T07:15:22.839Z,8.65
2022-07-25T07:20:23.305Z,8.05
2022-07-25T07:25:24.239Z,8.30
2022-07-25T07:30:52.172Z,7.65
2022-07-25T07:35:47.744Z,6.95
2022-07-25T07:40:46.505Z,7.88
2022-07-25T07:45:45.680Z,9.48
2022-07-25T07:50:44.603Z,6.30
2022-07-25T07:55:45.486Z,7.68
2022-07-25T08:00:44.907Z,7.40
2022-07-25T08:05:45.651Z,7.60
2022-07-25T08:10:48.000Z,7.20
2022-07-25T08:15:51.889Z,6.70
2022-07-25T08:20:51.360Z,7.40
2022-07-25T08:25:59.011Z,6.57
2022-07-25T08:30:59.872Z,6.40
2022-07-25T08:35:59.794Z,6.07
2022-07-25T08:41:00.142Z,6.13
2022-07-25T08:51:01.676Z,6.93
2022-07-25T09:01:09.238Z,6.32
2022-07-25T09:06:21.886Z,5.97
2022-07-25T09:11:30.485Z,5.88
2022-07-25T09:16:33.910Z,5.30
2022-07-25T09:21:32.819Z,6.93
2022-07-25T09:26:32.987Z,5.43
2022-07-25T09:31:35.143Z,5.47
2022-07-25T09:36:35.634Z,5.40
2022-07-25T09:41:40.613Z,5.20
2022-07-25T09:46:39.534Z,5.25
2022-07-25T09:51:38.508Z,4.60
2022-07-25T10:01:41.441Z,4.40
2022-07-25T10:06:46.307Z,4.10
2022-07-25T10:12:10.153Z,4.40
2022-07-25T10:17:10.538Z,5.40
2022-07-25T10:22:15.085Z,4.20
2022-07-25T10:27:22.311Z,5.00
2022-07-25T10:32:21.405Z,6.25
2022-07-25T10:37:21.306Z,4.30
2022-07-25T10:42:26.792Z,4.28
2022-07-25T10:47:28.309Z,5.45
2022-07-25T10:52:29.923Z,4.38
2022-07-25T10:57:32.276Z,4.03
2022-07-25T11:02:32.907Z,4.95
2022-07-25T11:07:36.191Z,4.88
2022-07-25T11:12:37.558Z,4.47
2022-07-25T11:17:36.323Z,5.45
2022-07-25T11:22:35.913Z,4.45
2022-07-25T11:27:36.866Z,4.47
2022-07-25T11:32:40.481Z,4.28
2022-07-25T11:37:41.708Z,3.88
2022-07-25T11:42:44.070Z,4.00
2022-07-25T11:47:43.081Z,4.28
2022-07-25T11:52:46.063Z,4.80
2022-07-25T11:57:49.227Z,4.38
2022-07-25T12:02:49.578Z,4.53
2022-07-25T12:07:51.520Z,4.57
2022-07-25T12:12:54.799Z,4.60
2022-07-25T12:17:55.590Z,5.13
2022-07-25T12:23:00.377Z,3.97
2022-07-25T12:28:10.738Z,3.95
2022-07-25T12:33:14.913Z,4.38
2022-07-25T12:38:14.499Z,4.45
2022-07-25T12:43:14.673Z,4.22
2022-07-25T12:48:14.901Z,4.10
2022-07-25T12:53:14.655Z,4.55
2022-07-25T12:58:15.289Z,4.50
2022-07-25T13:03:15.513Z,4.00
2022-07-25T13:08:14.225Z,3.85
2022-07-25T13:13:14.789Z,4.07
2022-07-25T13:18:13.516Z,3.58
2022-07-25T13:23:13.642Z,3.92
2022-07-25T13:28:17.029Z,3.85
2022-07-25T13:33:15.767Z,4.55
2022-07-25T13:38:15.068Z,4.10
2022-07-25T13:43:16.103Z,2.88
2022-07-25T13:48:30.915Z,3.58
2022-07-25T13:53:30.930Z,3.97
2022-07-25T13:58:31.258Z,3.50
2022-07-25T14:03:30.682Z,4.07
2022-07-25T14:08:29.381Z,3.25
2022-07-25T14:13:28.079Z,3.38
2022-07-25T14:18:28.186Z,4.00
2022-07-25T14:23:30.076Z,3.00
2022-07-25T14:28:29.036Z,3.08
2022-07-25T14:33:29.244Z,3.30
2022-07-25T14:38:28.053Z,3.50
2022-07-25T14:43:26.885Z,2.95
2022-07-25T14:48:25.752Z,2.80
2022-07-25T14:53:26.017Z,3.10
2022-07-25T14:58:25.445Z,4.38
2022-07-25T15:03:24.227Z,3.50
2022-07-25T15:08:26.659Z,3.53
2022-07-25T15:13:32.938Z,3.42
2022-07-25T15:18:32.213Z,3.60
2022-07-25T15:23:32.337Z,3.17
2022-07-25T15:28:31.395Z,3.53
2022-07-25T15:33:30.665Z,3.30
2022-07-25T15:38:30.943Z,3.38
2022-07-25T15:43:31.214Z,3.42
2022-07-25T15:48:30.124Z,3.58
2022-07-25T15:53:30.445Z,3.80
2022-07-25T15:58:30.674Z,3.95
2022-07-25T16:03:29.824Z,3.35
2022-07-25T16:08:28.695Z,3.53
2022-07-25T16:13:28.228Z,5.13
2022-07-25T16:18:28.480Z,5.05
2022-07-25T16:23:28.355Z,5.80
2022-07-25T16:28:27.684Z,5.60
2022-07-25T16:33:28.195Z,4.13
2022-07-25T16:38:27.645Z,4.30
2022-07-25T16:43:31.454Z,4.03
2022-07-25T16:48:35.257Z,4.97
2022-07-25T16:53:35.893Z,5.72
2022-07-25T16:58:35.086Z,9.52
2022-07-25T17:03:35.643Z,7.35
2022-07-25T17:08:35.274Z,11.05
2022-07-25T17:13:34.171Z,7.82
2022-07-25T17:23:35.842Z,6.63
2022-07-25T17:28:38.120Z,5.82
2022-07-25T17:33:37.251Z,4.70
2022-07-25T17:38:38.168Z,5.13
2022-07-25T17:43:37.134Z,5.18
2022-07-25T17:48:36.354Z,4.72
2022-07-25T17:53:35.245Z,4.45
2022-07-25T17:58:35.655Z,4.10
2022-07-25T18:03:34.502Z,4.68
2022-07-25T18:08:35.452Z,6.40
2022-07-25T18:13:36.136Z,5.90
2022-07-25T18:18:37.467Z,5.80
2022-07-25T18:23:36.273Z,6.05
2022-07-25T18:28:36.964Z,5.28
2022-07-25T18:33:37.869Z,5.47
2022-07-25T18:38:37.342Z,4.57
2022-07-25T18:43:37.823Z,5.53
2022-07-25T18:48:37.431Z,6.50
2022-07-25T18:53:37.013Z,5.78
2022-07-25T18:58:37.759Z,6.28
2022-07-25T19:03:39.943Z,6.00
2022-07-25T19:08:39.375Z,6.53
2022-07-25T19:13:50.007Z,5.87
2022-07-25T19:18:49.781Z,6.45
2022-07-25T19:23:51.225Z,6.07
2022-07-25T19:28:51.902Z,5.57
2022-07-25T19:33:50.765Z,5.78
2022-07-25T19:38:49.736Z,5.18
2022-07-25T19:43:48.582Z,5.35
2022-07-25T19:48:48.897Z,5.55
2022-07-25T19:58:46.481Z,5.97
2022-07-25T20:03:45.431Z,5.65
2022-07-25T20:08:45.670Z,6.50
2022-07-25T20:13:44.517Z,5.80
2022-07-25T20:18:43.437Z,7.63
2022-07-25T20:23:51.814Z,6.07
2022-07-25T20:28:50.814Z,6.60
2022-07-25T20:33:50.463Z,6.50
2022-07-25T20:38:50.955Z,7.53
2022-07-25T20:48:48.326Z,6.10
2022-07-25T20:53:51.691Z,5.28
2022-07-25T20:58:53.878Z,5.40
2022-07-25T21:03:52.761Z,4.65
2022-07-25T21:08:51.628Z,4.85
2022-07-25T21:13:51.204Z,4.47
2022-07-25T21:18:51.393Z,5.38
2022-07-25T21:23:50.302Z,4.70
2022-07-25T21:28:49.107Z,4.80
2022-07-25T21:33:50.471Z,4.10
2022-07-25T21:38:50.691Z,4.55
2022-07-25T21:43:49.677Z,4.82
2022-07-25T21:49:06.020Z,5.07
2022-07-25T21:54:07.157Z,4.85
2022-07-25T21:59:06.888Z,4.95
2022-07-25T22:04:06.771Z,4.13
2022-07-25T22:09:08.208Z,4.15
2022-07-25T22:14:08.973Z,3.92
2022-07-25T22:19:08.304Z,3.88
2022-07-25T22:24:09.394Z,3.88
2022-07-25T22:34:07.384Z,3.83
2022-07-25T22:39:06.488Z,4.65
2022-07-25T22:44:07.126Z,5.03
2022-07-25T22:49:06.800Z,3.80
2022-07-25T22:54:06.440Z,4.47
2022-07-25T22:59:06.980Z,4.15
2022-07-25T23:04:06.273Z,4.35
2022-07-25T23:09:05.549Z,4.10
2022-07-25T23:14:04.640Z,4.35
2022-07-25T23:19:05.058Z,4.47
2022-07-25T23:24:04.119Z,4.80
2022-07-25T23:29:02.964Z,5.20
2022-07-25T23:34:01.823Z,4.38
2022-07-25T23:39:02.052Z,4.65
2022-07-25T23:44:00.976Z,4.27
2022-07-25T23:49:01.061Z,5.18
2022-07-25T23:54:03.652Z,4.47
2022-07-25T23:59:02.563Z,4.93
